createdAt,value
2022-09-13T00:01:11.922Z,4.82
2022-09-13T00:03:41.671Z,4.28
2022-09-13T00:06:11.871Z,4.40
2022-09-13T00:08:40.291Z,4.57
2022-09-13T00:11:09.203Z,4.82
2022-09-13T00:13:37.418Z,3.67
2022-09-13T00:16:05.846Z,5.38
2022-09-13T00:18:35.770Z,6.45
2022-09-13T00:21:11.079Z,4.57
2022-09-13T00:23:39.764Z,5.20
2022-09-13T00:26:10.101Z,5.05
2022-09-13T00:28:39.066Z,4.53
2022-09-13T00:31:09.943Z,3.80
2022-09-13T00:33:38.650Z,3.80
2022-09-13T00:36:10.641Z,4.15
2022-09-13T00:38:39.944Z,4.65
2022-09-13T00:41:11.454Z,5.00
2022-09-13T00:43:44.688Z,4.53
2022-09-13T00:46:18.649Z,6.35
2022-09-13T00:48:48.459Z,6.65
2022-09-13T00:51:18.234Z,7.05
2022-09-13T00:53:51.491Z,6.32
2022-09-13T00:56:23.899Z,4.75
2022-09-13T00:58:58.622Z,5.15
2022-09-13T01:01:32.609Z,5.13
2022-09-13T01:04:02.700Z,6.88
2022-09-13T01:06:36.393Z,4.65
2022-09-13T01:09:06.729Z,5.30
2022-09-13T01:11:42.017Z,5.38
2022-09-13T01:14:11.193Z,5.45
2022-09-13T01:16:39.543Z,5.60
2022-09-13T01:19:07.789Z,6.07
2022-09-13T01:22:26.326Z,5.28
2022-09-13T01:25:23.453Z,4.28
2022-09-13T01:28:10.810Z,6.25
2022-09-13T01:30:44.403Z,6.25
2022-09-13T01:33:33.023Z,4.07
2022-09-13T01:36:32.976Z,7.15
2022-09-13T01:39:05.841Z,5.10
2022-09-13T01:41:54.649Z,6.82
2022-09-13T01:44:35.629Z,5.57
2022-09-13T01:47:14.745Z,5.45
2022-09-13T01:49:48.771Z,6.70
2022-09-13T01:52:24.852Z,5.28
2022-09-13T01:55:02.608Z,5.75
2022-09-13T01:57:34.791Z,6.47
2022-09-13T02:00:09.948Z,5.93
2022-09-13T02:02:47.662Z,4.38
2022-09-13T02:05:21.269Z,6.60
2022-09-13T02:08:00.515Z,7.70
2022-09-13T02:10:34.539Z,5.47
2022-09-13T02:13:07.460Z,4.80
2022-09-13T02:15:40.265Z,5.18
2022-09-13T02:18:14.415Z,5.70
2022-09-13T02:20:47.156Z,6.50
2022-09-13T02:23:18.618Z,7.63
2022-09-13T02:25:48.215Z,4.95
2022-09-13T02:28:22.693Z,4.50
2022-09-13T02:30:53.960Z,5.35
2022-09-13T02:33:27.474Z,5.70
2022-09-13T02:35:59.881Z,5.18
2022-09-13T02:38:33.252Z,5.68
2022-09-13T02:41:08.295Z,4.45
2022-09-13T02:43:41.953Z,5.60
2022-09-13T02:46:21.404Z,5.10
2022-09-13T02:49:01.593Z,4.40
2022-09-13T02:51:36.709Z,7.15
2022-09-13T02:54:13.596Z,4.68
2022-09-13T02:56:49.950Z,5.53
2022-09-13T02:59:20.600Z,5.35
2022-09-13T03:01:53.973Z,6.03
2022-09-13T03:04:23.895Z,5.68
2022-09-13T03:06:52.341Z,4.85
2022-09-13T03:09:21.658Z,4.55
2022-09-13T03:12:08.984Z,4.65
2022-09-13T03:14:45.834Z,4.80
2022-09-13T03:17:25.573Z,5.35
2022-09-13T03:20:09.482Z,4.65
2022-09-13T03:23:13.399Z,4.57
2022-09-13T03:25:58.585Z,6.05
2022-09-13T03:28:35.791Z,3.47
2022-09-13T03:31:09.684Z,6.18
2022-09-13T03:33:48.060Z,5.80
2022-09-13T03:36:21.269Z,4.13
2022-09-13T03:38:57.827Z,4.13
2022-09-13T03:41:31.305Z,5.45
2022-09-13T03:44:02.972Z,5.45
2022-09-13T03:46:34.849Z,4.90
2022-09-13T03:49:07.010Z,4.72
2022-09-13T03:51:37.685Z,3.95
2022-09-13T03:54:08.971Z,4.10
2022-09-13T03:56:37.290Z,5.35
2022-09-13T03:59:05.544Z,6.25
2022-09-13T04:01:33.841Z,4.43
2022-09-13T04:04:02.194Z,5.05
2022-09-13T04:06:30.453Z,5.03
2022-09-13T04:09:00.470Z,4.10
2022-09-13T04:11:32.157Z,6.70
2022-09-13T04:14:00.597Z,4.38
2022-09-13T04:16:28.851Z,3.25
2022-09-13T04:18:57.196Z,5.50
2022-09-13T04:21:25.511Z,5.00
2022-09-13T04:23:53.827Z,4.30
2022-09-13T04:26:23.540Z,5.10
2022-09-13T04:28:54.145Z,4.78
2022-09-13T04:31:22.640Z,4.35
2022-09-13T04:33:51.127Z,5.82
2022-09-13T04:36:20.784Z,4.63
2022-09-13T04:38:49.305Z,6.32
2022-09-13T04:41:17.646Z,4.50
2022-09-13T04:43:51.315Z,4.78
2022-09-13T04:46:20.071Z,6.68
2022-09-13T04:48:50.646Z,4.35
2022-09-13T04:51:19.794Z,4.40
2022-09-13T04:53:48.090Z,6.63
2022-09-13T04:56:16.518Z,6.28
2022-09-13T04:58:44.885Z,5.22
2022-09-13T05:01:14.695Z,5.22
2022-09-13T05:03:43.005Z,5.20
2022-09-13T05:06:13.925Z,5.40
2022-09-13T05:08:42.555Z,6.75
2022-09-13T05:11:11.258Z,5.55
2022-09-13T05:13:39.576Z,5.65
2022-09-13T05:16:09.137Z,7.10
2022-09-13T05:18:43.166Z,10.05
2022-09-13T05:21:13.770Z,5.20
2022-09-13T05:23:42.032Z,3.65
2022-09-13T05:26:10.503Z,5.18
2022-09-13T05:28:39.229Z,4.57
2022-09-13T05:31:09.184Z,5.40
2022-09-13T05:33:39.743Z,6.28
2022-09-13T05:36:08.615Z,5.95
2022-09-13T05:38:36.959Z,4.80
2022-09-13T05:41:06.626Z,5.35
2022-09-13T05:43:36.576Z,4.25
2022-09-13T05:46:07.196Z,5.45
2022-09-13T05:48:38.552Z,5.63
2022-09-13T05:51:10.992Z,5.13
2022-09-13T05:53:42.260Z,4.85
2022-09-13T05:56:16.533Z,6.13
2022-09-13T05:58:48.303Z,4.93
2022-09-13T06:01:18.080Z,6.00
2022-09-13T06:03:49.348Z,4.70
2022-09-13T06:06:21.896Z,6.30
2022-09-13T06:08:53.634Z,5.65
2022-09-13T06:11:22.300Z,7.70
2022-09-13T06:13:50.583Z,7.45
2022-09-13T06:16:19.048Z,6.78
2022-09-13T06:18:47.527Z,6.03
2022-09-13T06:21:19.372Z,4.97
2022-09-13T06:23:48.507Z,5.82
2022-09-13T06:26:19.128Z,6.75
2022-09-13T06:28:49.403Z,7.35
2022-09-13T06:31:19.473Z,7.57
2022-09-13T06:33:48.066Z,6.50
2022-09-13T06:36:20.074Z,5.95
2022-09-13T06:38:49.711Z,5.45
2022-09-13T06:41:20.173Z,7.75
2022-09-13T06:43:49.209Z,6.25
2022-09-13T06:46:24.970Z,6.63
2022-09-13T06:48:54.345Z,5.53
2022-09-13T06:51:25.149Z,5.78
2022-09-13T06:53:56.693Z,7.18
2022-09-13T06:56:26.861Z,7.20
2022-09-13T06:58:58.238Z,5.68
2022-09-13T07:01:28.756Z,5.90
2022-09-13T07:04:00.984Z,7.18
2022-09-13T07:06:33.212Z,6.85
2022-09-13T07:09:03.459Z,7.32
2022-09-13T07:11:35.773Z,7.13
2022-09-13T07:14:04.913Z,6.07
2022-09-13T07:16:35.268Z,7.40
2022-09-13T07:19:06.635Z,8.50
2022-09-13T07:21:36.860Z,7.90
2022-09-13T07:24:05.888Z,8.40
2022-09-13T07:26:34.448Z,7.72
2022-09-13T07:29:05.535Z,6.95
2022-09-13T07:31:35.804Z,8.55
2022-09-13T07:34:06.206Z,10.93
2022-09-13T07:36:37.484Z,10.10
2022-09-13T07:39:09.863Z,8.20
2022-09-13T07:41:42.945Z,9.32
2022-09-13T07:44:11.782Z,8.30
2022-09-13T07:46:43.510Z,8.70
2022-09-13T07:49:13.740Z,9.75
2022-09-13T07:51:45.166Z,8.40
2022-09-13T07:54:16.302Z,11.80
2022-09-13T07:56:45.578Z,11.70
2022-09-13T07:59:15.874Z,12.02
2022-09-13T08:01:45.690Z,10.85
2022-09-13T08:04:17.359Z,24.08
2022-09-13T08:06:48.065Z,14.77
2022-09-13T08:09:17.349Z,12.40
2022-09-13T08:11:47.906Z,11.77
2022-09-13T08:14:17.754Z,11.27
2022-09-13T08:16:46.659Z,12.93
2022-09-13T08:19:17.506Z,10.82
2022-09-13T08:21:48.082Z,17.77
2022-09-13T08:24:17.796Z,21.40
2022-09-13T08:26:47.642Z,18.20
2022-09-13T08:29:17.009Z,23.80
2022-09-13T08:31:45.647Z,29.42
2022-09-13T08:34:15.444Z,26.73
2022-09-13T08:36:44.152Z,15.05
2022-09-13T08:39:14.410Z,16.08
2022-09-13T08:42:20.918Z,17.88
2022-09-13T08:44:54.061Z,15.45
2022-09-13T08:47:44.629Z,21.10
2022-09-13T08:50:19.150Z,15.77
2022-09-13T08:52:58.312Z,17.67
2022-09-13T08:55:41.895Z,19.00
2022-09-13T08:58:23.997Z,16.58
2022-09-13T09:01:01.152Z,12.25
2022-09-13T09:03:37.704Z,16.50
2022-09-13T09:06:14.808Z,16.15
2022-09-13T09:08:47.852Z,14.48
2022-09-13T09:11:29.847Z,16.38
2022-09-13T09:14:04.692Z,18.48
2022-09-13T09:16:38.050Z,15.02
2022-09-13T09:19:16.251Z,12.00
2022-09-13T09:21:48.138Z,16.75
2022-09-13T09:24:20.938Z,18.48
2022-09-13T09:26:50.685Z,14.05
2022-09-13T09:29:24.985Z,14.30
2022-09-13T09:32:03.367Z,18.55
2022-09-13T09:34:43.874Z,13.57
2022-09-13T09:37:21.016Z,14.30
2022-09-13T09:39:51.117Z,10.20
2022-09-13T09:42:24.925Z,13.00
2022-09-13T09:44:57.241Z,11.55
2022-09-13T09:47:29.683Z,13.18
2022-09-13T09:50:10.165Z,15.63
2022-09-13T09:52:44.721Z,14.40
2022-09-13T09:55:28.488Z,14.43
2022-09-13T09:58:00.757Z,24.05
2022-09-13T10:00:31.648Z,16.52
2022-09-13T10:03:03.477Z,14.38
2022-09-13T10:05:33.487Z,12.30
2022-09-13T10:08:04.016Z,16.00
2022-09-13T10:10:42.487Z,14.40
2022-09-13T10:13:18.455Z,21.35
2022-09-13T10:16:05.390Z,12.35
2022-09-13T10:18:45.364Z,15.90
2022-09-13T10:21:24.720Z,11.60
2022-09-13T10:24:13.263Z,14.57
2022-09-13T10:26:42.793Z,11.07
2022-09-13T10:29:17.730Z,11.55
2022-09-13T10:31:53.723Z,12.98
2022-09-13T10:34:24.759Z,9.93
2022-09-13T10:36:57.172Z,9.80
2022-09-13T10:39:26.796Z,11.50
2022-09-13T10:41:58.243Z,15.20
2022-09-13T10:44:42.224Z,11.27
2022-09-13T10:47:18.597Z,12.90
2022-09-13T10:49:48.973Z,12.73
2022-09-13T10:52:45.107Z,10.75
2022-09-13T10:55:37.614Z,12.25
2022-09-13T10:58:30.376Z,10.70
2022-09-13T11:01:40.136Z,11.18
2022-09-13T11:04:39.063Z,13.60
2022-09-13T11:07:30.211Z,12.25
2022-09-13T11:10:03.696Z,10.30
2022-09-13T11:12:42.297Z,16.58
2022-09-13T11:15:23.868Z,17.63
2022-09-13T11:18:24.738Z,17.17
2022-09-13T11:21:02.455Z,13.88
2022-09-13T11:24:05.145Z,16.40
2022-09-13T11:26:50.743Z,15.00
2022-09-13T11:29:38.951Z,16.88
2022-09-13T11:32:20.364Z,13.43
2022-09-13T11:35:06.479Z,12.65
2022-09-13T11:37:44.910Z,14.50
2022-09-13T11:40:29.982Z,15.45
2022-09-13T11:43:11.839Z,15.38
2022-09-13T11:45:46.282Z,13.68
2022-09-13T11:48:48.716Z,14.95
2022-09-13T11:51:26.413Z,17.77
2022-09-13T11:54:13.696Z,16.17
2022-09-13T11:56:46.244Z,18.05
2022-09-13T11:59:24.397Z,16.40
2022-09-13T12:01:57.225Z,16.80
2022-09-13T12:04:33.687Z,15.63
2022-09-13T12:07:05.653Z,13.38
2022-09-13T12:09:38.747Z,13.57
2022-09-13T12:12:11.252Z,12.57
2022-09-13T12:14:47.511Z,13.23
2022-09-13T12:17:26.676Z,11.10
2022-09-13T12:19:57.252Z,13.25
2022-09-13T12:22:31.071Z,11.15
2022-09-13T12:25:06.033Z,12.50
2022-09-13T12:27:40.650Z,14.30
2022-09-13T12:30:17.199Z,14.45
2022-09-13T12:32:47.493Z,12.35
2022-09-13T12:35:24.455Z,17.05
2022-09-13T12:38:28.229Z,14.95
2022-09-13T12:41:19.453Z,11.45
2022-09-13T12:44:10.832Z,13.30
2022-09-13T12:46:54.929Z,13.27
2022-09-13T12:49:40.119Z,11.43
2022-09-13T12:52:24.414Z,12.45
2022-09-13T12:55:42.617Z,13.60
2022-09-13T12:58:21.353Z,12.10
2022-09-13T13:01:09.059Z,10.98
2022-09-13T13:03:47.654Z,11.57
2022-09-13T13:06:33.474Z,13.70
2022-09-13T13:09:05.900Z,14.68
2022-09-13T13:11:45.107Z,13.32
2022-09-13T13:14:45.931Z,12.40
2022-09-13T13:17:40.741Z,14.27
2022-09-13T13:20:46.051Z,11.93
2022-09-13T13:23:23.490Z,13.57
2022-09-13T13:26:07.786Z,14.35
2022-09-13T13:29:15.535Z,13.15
2022-09-13T13:32:10.194Z,11.93
2022-09-13T13:34:48.958Z,14.77
2022-09-13T13:37:38.160Z,17.58
2022-09-13T13:40:21.183Z,14.63
2022-09-13T13:42:49.604Z,13.60
2022-09-13T13:45:28.266Z,13.93
2022-09-13T13:48:15.231Z,13.85
2022-09-13T13:51:29.550Z,14.77
2022-09-13T13:54:02.560Z,14.57
2022-09-13T13:56:46.137Z,12.50
2022-09-13T13:59:19.290Z,13.32
2022-09-13T14:01:51.624Z,16.00
2022-09-13T14:04:58.550Z,13.48
2022-09-13T14:07:58.993Z,17.55
2022-09-13T14:10:38.040Z,15.68
2022-09-13T14:13:23.008Z,15.82
2022-09-13T14:16:01.564Z,15.32
2022-09-13T14:18:53.876Z,13.95
2022-09-13T14:21:26.733Z,15.00
2022-09-13T14:24:19.150Z,14.50
2022-09-13T14:26:49.261Z,14.43
2022-09-13T14:29:19.984Z,13.38
2022-09-13T14:31:50.787Z,14.40
2022-09-13T14:34:23.934Z,16.13
2022-09-13T14:36:55.860Z,13.90
2022-09-13T14:39:24.996Z,13.32
2022-09-13T14:42:01.379Z,12.60
2022-09-13T14:44:30.520Z,12.70
2022-09-13T14:47:07.407Z,12.63
2022-09-13T14:49:40.974Z,13.13
2022-09-13T14:52:18.705Z,13.10
2022-09-13T14:54:51.246Z,12.52
2022-09-13T14:57:26.919Z,14.30
2022-09-13T14:59:58.610Z,13.02
2022-09-13T15:02:30.954Z,11.63
2022-09-13T15:05:01.068Z,17.35
2022-09-13T15:07:32.742Z,13.30
2022-09-13T15:10:09.287Z,11.80
2022-09-13T15:12:38.240Z,13.45
2022-09-13T15:15:27.897Z,16.27
2022-09-13T15:17:57.970Z,14.20
2022-09-13T15:20:28.313Z,15.77
2022-09-13T15:22:58.431Z,16.08
2022-09-13T15:25:29.494Z,17.20
2022-09-13T15:27:58.719Z,14.40
2022-09-13T15:30:29.680Z,15.95
2022-09-13T15:33:24.265Z,14.48
2022-09-13T15:35:53.770Z,13.32
2022-09-13T15:38:30.858Z,12.00
2022-09-13T15:41:02.950Z,12.55
2022-09-13T15:43:32.064Z,12.65
2022-09-13T15:46:01.636Z,12.25
2022-09-13T15:48:31.683Z,11.80
2022-09-13T15:51:11.944Z,12.10
2022-09-13T15:53:43.760Z,9.50
2022-09-13T15:56:15.781Z,8.10
2022-09-13T15:58:44.096Z,7.53
2022-09-13T16:01:13.506Z,8.77
2022-09-13T16:03:42.154Z,9.05
2022-09-13T16:06:10.895Z,10.60
2022-09-13T16:08:41.393Z,9.52
2022-09-13T16:11:09.684Z,10.90
2022-09-13T16:13:38.190Z,8.77
2022-09-13T16:16:06.755Z,11.02
2022-09-13T16:18:35.145Z,7.30
2022-09-13T16:21:03.806Z,6.90
2022-09-13T16:23:32.164Z,5.72
2022-09-13T16:26:01.949Z,5.35
2022-09-13T16:28:30.233Z,8.90
2022-09-13T16:30:58.557Z,6.57
2022-09-13T16:33:26.948Z,5.80
2022-09-13T16:35:58.025Z,7.78
2022-09-13T16:38:29.824Z,5.03
2022-09-13T16:40:58.116Z,8.27
2022-09-13T16:43:27.673Z,7.53
2022-09-13T16:45:55.958Z,7.03
2022-09-13T16:48:24.214Z,9.43
2022-09-13T16:50:52.558Z,5.72
2022-09-13T16:53:20.826Z,7.82
2022-09-13T16:55:49.046Z,5.20
2022-09-13T16:58:18.311Z,5.32
2022-09-13T17:00:47.945Z,6.38
2022-09-13T17:03:16.314Z,9.30
2022-09-13T17:05:44.739Z,6.85
2022-09-13T17:08:13.007Z,6.90
2022-09-13T17:10:41.564Z,6.85
2022-09-13T17:13:10.036Z,6.63
2022-09-13T17:15:40.242Z,6.68
2022-09-13T17:18:10.631Z,5.65
2022-09-13T17:20:44.798Z,7.25
2022-09-13T17:23:13.187Z,6.03
2022-09-13T17:25:43.565Z,6.18
2022-09-13T17:28:11.887Z,9.10
2022-09-13T17:30:41.286Z,6.82
2022-09-13T17:33:11.697Z,4.43
2022-09-13T17:35:40.217Z,6.43
2022-09-13T17:38:08.524Z,6.00
2022-09-13T17:40:36.865Z,4.97
2022-09-13T17:43:05.234Z,6.30
2022-09-13T17:45:34.007Z,5.93
2022-09-13T17:48:02.504Z,4.47
2022-09-13T17:50:32.130Z,6.95
2022-09-13T17:53:00.375Z,6.20
2022-09-13T17:55:29.487Z,6.25
2022-09-13T17:57:57.703Z,7.75
2022-09-13T18:00:26.596Z,5.00
2022-09-13T18:02:55.109Z,6.68
2022-09-13T18:05:23.403Z,5.72
2022-09-13T18:07:53.083Z,6.78
2022-09-13T18:10:48.839Z,5.75
2022-09-13T18:13:09.914Z,4.25
2022-09-13T18:15:38.200Z,7.07
2022-09-13T18:18:06.487Z,8.65
2022-09-13T18:20:39.886Z,5.70
2022-09-13T18:23:10.239Z,6.60
2022-09-13T18:25:38.668Z,3.75
2022-09-13T18:28:06.955Z,7.20
2022-09-13T18:30:35.291Z,8.63
2022-09-13T18:33:03.488Z,5.88
2022-09-13T18:35:31.748Z,6.45
2022-09-13T18:38:01.984Z,5.03
2022-09-13T18:40:31.695Z,5.68
2022-09-13T18:43:00.033Z,7.38
2022-09-13T18:45:28.371Z,6.57
2022-09-13T18:47:56.754Z,5.22
2022-09-13T18:50:25.118Z,8.73
2022-09-13T18:52:53.368Z,5.05
2022-09-13T18:55:22.545Z,6.10
2022-09-13T18:57:52.927Z,5.20
2022-09-13T19:00:21.466Z,6.50
2022-09-13T19:03:10.811Z,5.30
2022-09-13T19:05:40.082Z,6.10
2022-09-13T19:08:10.472Z,5.75
2022-09-13T19:10:39.534Z,7.57
2022-09-13T19:13:10.141Z,5.72
2022-09-13T19:15:38.579Z,6.55
2022-09-13T19:18:06.884Z,4.63
2022-09-13T19:20:35.173Z,6.20
2022-09-13T19:23:04.151Z,5.95
2022-09-13T19:25:35.271Z,4.22
2022-09-13T19:28:04.177Z,7.07
2022-09-13T19:30:35.359Z,6.43
2022-09-13T19:33:03.634Z,5.88
2022-09-13T19:35:31.894Z,9.02
2022-09-13T19:38:00.139Z,6.85
2022-09-13T19:40:28.470Z,5.45
2022-09-13T19:42:56.875Z,7.05
2022-09-13T19:45:25.925Z,7.00
2022-09-13T19:50:44.390Z,8.68
2022-09-13T19:53:12.679Z,6.80
2022-09-13T19:55:45.512Z,9.55
2022-09-13T19:58:14.308Z,8.07
2022-09-13T20:00:42.562Z,7.25
2022-09-13T20:03:12.433Z,7.80
2022-09-13T20:05:40.913Z,10.70
2022-09-13T20:08:09.193Z,6.55
2022-09-13T20:10:39.731Z,6.53
2022-09-13T20:13:08.683Z,8.05
2022-09-13T20:15:39.927Z,6.38
2022-09-13T20:18:13.246Z,6.07
2022-09-13T20:20:43.824Z,6.05
2022-09-13T20:23:12.343Z,6.30
2022-09-13T20:25:41.955Z,5.78
2022-09-13T20:28:10.378Z,6.13
2022-09-13T20:30:41.064Z,9.02
2022-09-13T20:33:10.381Z,7.45
2022-09-13T20:35:39.188Z,6.93
2022-09-13T20:38:09.804Z,5.90
2022-09-13T20:40:38.120Z,5.82
2022-09-13T20:43:06.323Z,7.97
2022-09-13T20:45:34.582Z,7.18
2022-09-13T20:48:03.095Z,7.55
2022-09-13T20:50:31.343Z,10.10
2022-09-13T20:53:00.446Z,7.88
2022-09-13T20:55:30.138Z,10.23
2022-09-13T20:57:58.423Z,7.72
2022-09-13T21:00:26.744Z,9.73
2022-09-13T21:02:55.050Z,6.28
2022-09-13T21:05:23.384Z,9.27
2022-09-13T21:08:08.711Z,8.93
2022-09-13T21:10:38.339Z,6.28
2022-09-13T21:13:09.130Z,8.23
2022-09-13T21:15:38.637Z,8.07
2022-09-13T21:18:06.996Z,8.32
2022-09-13T21:20:35.316Z,6.18
2022-09-13T21:23:03.655Z,10.68
2022-09-13T21:25:31.928Z,6.85
2022-09-13T21:28:01.517Z,8.25
2022-09-13T21:30:30.121Z,6.80
2022-09-13T21:32:58.418Z,7.30
2022-09-13T21:35:27.191Z,8.77
2022-09-13T21:37:55.430Z,7.28
2022-09-13T21:40:23.684Z,10.00
2022-09-13T21:42:52.332Z,8.15
2022-09-13T21:45:22.215Z,9.80
2022-09-13T21:47:50.562Z,8.65
2022-09-13T21:50:18.770Z,8.63
2022-09-13T21:52:47.517Z,9.73
2022-09-13T21:55:17.477Z,8.57
2022-09-13T21:57:45.841Z,7.35
2022-09-13T22:00:15.897Z,8.80
2022-09-13T22:02:45.509Z,14.15
2022-09-13T22:05:13.933Z,11.00
2022-09-13T22:07:42.304Z,7.20
2022-09-13T22:10:11.081Z,8.20
2022-09-13T22:12:39.665Z,6.47
2022-09-13T22:15:09.789Z,8.32
2022-09-13T22:17:37.961Z,11.45
2022-09-13T22:20:08.178Z,10.25
2022-09-13T22:22:36.463Z,11.30
2022-09-13T22:25:05.155Z,7.68
2022-09-13T22:27:33.371Z,8.18
2022-09-13T22:30:02.111Z,8.55
2022-09-13T22:32:30.756Z,8.68
2022-09-13T22:34:59.047Z,6.68
2022-09-13T22:37:28.588Z,7.85
2022-09-13T22:39:59.372Z,8.50
2022-09-13T22:42:27.807Z,9.13
2022-09-13T22:44:56.280Z,8.65
2022-09-13T22:47:24.561Z,8.80
2022-09-13T22:49:52.870Z,9.32
2022-09-13T22:52:21.152Z,9.15
2022-09-13T22:54:52.073Z,8.95
2022-09-13T22:57:20.522Z,7.57
2022-09-13T22:59:48.798Z,8.43
2022-09-13T23:02:17.087Z,10.65
2022-09-13T23:04:45.431Z,8.10
2022-09-13T23:07:13.895Z,9.88
2022-09-13T23:09:42.545Z,8.60
2022-09-13T23:12:14.650Z,9.50
2022-09-13T23:14:43.085Z,8.20
2022-09-13T23:17:11.469Z,8.60
2022-09-13T23:19:39.825Z,8.57
2022-09-13T23:22:08.337Z,8.20
2022-09-13T23:24:36.741Z,6.72
2022-09-13T23:27:05.287Z,7.20
2022-09-13T23:29:35.628Z,7.45
2022-09-13T23:32:03.962Z,8.95
2022-09-13T23:34:34.399Z,9.35
2022-09-13T23:37:02.698Z,8.60
2022-09-13T23:39:31.278Z,7.68
2022-09-13T23:41:59.776Z,10.05
2022-09-13T23:44:29.122Z,6.00
2022-09-13T23:46:58.845Z,7.50
2022-09-13T23:49:27.058Z,6.75
2022-09-13T23:51:55.350Z,7.15
2022-09-13T23:54:23.584Z,6.30
2022-09-13T23:56:51.869Z,7.05
2022-09-13T23:59:20.165Z,6.03
